sensor_id;sensor_type;location;lat;lon;timestamp;pressure;altitude;pressure_sealevel;temperature;humidity
18201;BME280;9226;47.858;9.594;2024-02-23T00:02:19;93424.75;;;6.96;81.03
18201;BME280;9226;47.858;9.594;2024-02-23T00:04:45;93459.28;;;6.85;79.75
18201;BME280;9226;47.858;9.594;2024-02-23T00:07:11;93455.34;;;6.71;80.00
18201;BME280;9226;47.858;9.594;2024-02-23T00:09:37;93461.59;;;6.70;79.80
18201;BME280;9226;47.858;9.594;2024-02-23T00:12:02;93461.34;;;6.63;80.35
18201;BME280;9226;47.858;9.594;2024-02-23T00:14:29;93470.44;;;6.51;81.37
18201;BME280;9226;47.858;9.594;2024-02-23T00:16:56;93471.81;;;6.55;81.63
18201;BME280;9226;47.858;9.594;2024-02-23T00:19:22;93467.66;;;6.34;82.02
18201;BME280;9226;47.858;9.594;2024-02-23T00:21:49;93464.28;;;6.42;82.20
18201;BME280;9226;47.858;9.594;2024-02-23T00:24:16;93468.50;;;6.53;82.45
18201;BME280;9226;47.858;9.594;2024-02-23T00:26:42;93467.97;;;6.49;82.60
18201;BME280;9226;47.858;9.594;2024-02-23T00:29:08;93475.72;;;6.51;82.91
18201;BME280;9226;47.858;9.594;2024-02-23T00:31:34;93465.66;;;6.64;82.48
18201;BME280;9226;47.858;9.594;2024-02-23T00:34:01;93467.66;;;6.52;83.31
18201;BME280;9226;47.858;9.594;2024-02-23T00:36:26;93475.13;;;6.57;84.27
18201;BME280;9226;47.858;9.594;2024-02-23T00:38:52;93469.94;;;6.65;84.13
18201;BME280;9226;47.858;9.594;2024-02-23T00:41:17;93472.56;;;6.65;83.82
18201;BME280;9226;47.858;9.594;2024-02-23T00:43:42;93477.69;;;6.49;84.73
18201;BME280;9226;47.858;9.594;2024-02-23T00:46:08;93476.50;;;6.61;84.22
18201;BME280;9226;47.858;9.594;2024-02-23T00:48:34;93476.38;;;6.53;83.68
18201;BME280;9226;47.858;9.594;2024-02-23T00:51:01;93481.00;;;6.51;84.01
18201;BME280;9226;47.858;9.594;2024-02-23T00:53:28;93482.75;;;6.60;84.54
18201;BME280;9226;47.858;9.594;2024-02-23T00:55:53;93490.19;;;6.65;84.37
18201;BME280;9226;47.858;9.594;2024-02-23T00:58:19;93477.47;;;6.78;83.06
18201;BME280;9226;47.858;9.594;2024-02-23T01:00:44;93477.31;;;6.80;82.85
18201;BME280;9226;47.858;9.594;2024-02-23T01:03:10;93478.25;;;6.70;82.88
18201;BME280;9226;47.858;9.594;2024-02-23T01:05:35;93473.34;;;6.76;82.20
18201;BME280;9226;47.858;9.594;2024-02-23T01:08:02;93469.06;;;6.93;81.75
18201;BME280;9226;47.858;9.594;2024-02-23T01:10:28;93465.13;;;6.79;81.87
18201;BME280;9226;47.858;9.594;2024-02-23T01:12:53;93459.31;;;6.75;81.85
18201;BME280;9226;47.858;9.594;2024-02-23T01:15:18;93462.88;;;6.66;82.54
18201;BME280;9226;47.858;9.594;2024-02-23T01:17:44;93462.25;;;6.54;82.56
18201;BME280;9226;47.858;9.594;2024-02-23T01:20:10;93472.78;;;6.54;82.75
18201;BME280;9226;47.858;9.594;2024-02-23T01:22:35;93470.97;;;6.55;81.83
18201;BME280;9226;47.858;9.594;2024-02-23T01:25:01;93477.47;;;6.60;82.15
18201;BME280;9226;47.858;9.594;2024-02-23T01:27:26;93484.94;;;6.65;82.14
18201;BME280;9226;47.858;9.594;2024-02-23T01:29:51;93488.31;;;6.57;82.11
18201;BME280;9226;47.858;9.594;2024-02-23T01:32:17;93508.84;;;6.54;82.16
18201;BME280;9226;47.858;9.594;2024-02-23T01:34:42;93505.78;;;6.58;81.30
18201;BME280;9226;47.858;9.594;2024-02-23T01:37:07;93506.22;;;6.72;81.60
18201;BME280;9226;47.858;9.594;2024-02-23T01:39:33;93505.13;;;6.74;81.08
18201;BME280;9226;47.858;9.594;2024-02-23T01:41:58;93511.44;;;6.81;81.26
18201;BME280;9226;47.858;9.594;2024-02-23T01:44:24;93504.28;;;6.74;80.56
18201;BME280;9226;47.858;9.594;2024-02-23T01:46:50;93503.22;;;6.66;80.57
18201;BME280;9226;47.858;9.594;2024-02-23T01:49:16;93510.53;;;6.73;80.85
18201;BME280;9226;47.858;9.594;2024-02-23T01:51:42;93512.03;;;6.75;80.47
18201;BME280;9226;47.858;9.594;2024-02-23T01:54:08;93520.56;;;6.87;80.53
18201;BME280;9226;47.858;9.594;2024-02-23T01:56:35;93520.00;;;6.65;79.71
18201;BME280;9226;47.858;9.594;2024-02-23T01:59:02;93509.47;;;6.65;81.01
18201;BME280;9226;47.858;9.594;2024-02-23T02:01:29;93507.25;;;6.61;80.48
18201;BME280;9226;47.858;9.594;2024-02-23T02:03:55;93505.94;;;6.57;79.93
18201;BME280;9226;47.858;9.594;2024-02-23T02:06:22;93517.00;;;6.60;79.92
18201;BME280;9226;47.858;9.594;2024-02-23T02:08:47;93527.44;;;6.52;79.90
18201;BME280;9226;47.858;9.594;2024-02-23T02:11:12;93522.41;;;6.59;79.95
18201;BME280;9226;47.858;9.594;2024-02-23T02:13:38;93527.38;;;6.62;79.20
18201;BME280;9226;47.858;9.594;2024-02-23T02:16:03;93520.69;;;6.67;78.60
18201;BME280;9226;47.858;9.594;2024-02-23T02:18:29;93515.72;;;6.64;78.34
18201;BME280;9226;47.858;9.594;2024-02-23T02:20:57;93530.84;;;6.62;78.87
18201;BME280;9226;47.858;9.594;2024-02-23T02:23:22;93525.03;;;6.59;79.20
18201;BME280;9226;47.858;9.594;2024-02-23T02:25:55;93529.56;;;6.66;78.70
18201;BME280;9226;47.858;9.594;2024-02-23T02:28:22;93527.88;;;6.47;78.25
18201;BME280;9226;47.858;9.594;2024-02-23T02:30:48;93524.00;;;6.69;78.47
18201;BME280;9226;47.858;9.594;2024-02-23T02:33:14;93530.75;;;6.54;78.83
18201;BME280;9226;47.858;9.594;2024-02-23T02:35:39;93530.59;;;6.56;78.41
18201;BME280;9226;47.858;9.594;2024-02-23T02:38:04;93531.84;;;6.61;77.98
18201;BME280;9226;47.858;9.594;2024-02-23T02:40:30;93534.75;;;6.58;78.16
18201;BME280;9226;47.858;9.594;2024-02-23T02:42:57;93526.91;;;6.48;78.78
18201;BME280;9226;47.858;9.594;2024-02-23T02:45:22;93537.47;;;6.66;78.17
18201;BME280;9226;47.858;9.594;2024-02-23T02:47:47;93535.28;;;6.62;78.12
18201;BME280;9226;47.858;9.594;2024-02-23T02:50:13;93531.69;;;6.63;78.19
18201;BME280;9226;47.858;9.594;2024-02-23T02:52:38;93525.19;;;6.57;77.65
18201;BME280;9226;47.858;9.594;2024-02-23T02:55:04;93522.41;;;6.59;77.70
18201;BME280;9226;47.858;9.594;2024-02-23T02:57:29;93520.72;;;6.58;77.46
18201;BME280;9226;47.858;9.594;2024-02-23T02:59:55;93517.13;;;6.59;77.47
18201;BME280;9226;47.858;9.594;2024-02-23T03:02:20;93513.69;;;6.58;77.21
18201;BME280;9226;47.858;9.594;2024-02-23T03:04:49;93513.59;;;6.50;77.16
18201;BME280;9226;47.858;9.594;2024-02-23T03:07:16;93510.97;;;6.50;76.71
18201;BME280;9226;47.858;9.594;2024-02-23T03:09:41;93509.00;;;6.52;76.71
18201;BME280;9226;47.858;9.594;2024-02-23T03:12:07;93513.34;;;6.43;76.39
18201;BME280;9226;47.858;9.594;2024-02-23T03:14:32;93515.00;;;6.44;77.04
18201;BME280;9226;47.858;9.594;2024-02-23T03:16:59;93514.47;;;6.41;76.76
18201;BME280;9226;47.858;9.594;2024-02-23T03:19:24;93508.41;;;6.30;76.77
18201;BME280;9226;47.858;9.594;2024-02-23T03:21:51;93511.72;;;6.05;75.32
18201;BME280;9226;47.858;9.594;2024-02-23T03:24:16;93518.19;;;6.20;76.13
18201;BME280;9226;47.858;9.594;2024-02-23T03:26:41;93523.72;;;6.17;76.17
18201;BME280;9226;47.858;9.594;2024-02-23T03:29:07;93519.91;;;6.02;76.78
18201;BME280;9226;47.858;9.594;2024-02-23T03:31:32;93505.88;;;6.11;76.34
18201;BME280;9226;47.858;9.594;2024-02-23T03:33:58;93511.63;;;5.96;76.33
18201;BME280;9226;47.858;9.594;2024-02-23T03:36:23;93506.47;;;5.95;76.22
18201;BME280;9226;47.858;9.594;2024-02-23T03:38:48;93507.19;;;5.97;76.51
18201;BME280;9226;47.858;9.594;2024-02-23T03:41:14;93520.34;;;5.87;76.44
18201;BME280;9226;47.858;9.594;2024-02-23T03:43:39;93518.56;;;5.78;76.88
18201;BME280;9226;47.858;9.594;2024-02-23T03:46:06;93517.31;;;5.82;76.48
18201;BME280;9226;47.858;9.594;2024-02-23T03:48:31;93515.50;;;5.83;76.79
18201;BME280;9226;47.858;9.594;2024-02-23T03:50:57;93520.50;;;5.86;76.64
18201;BME280;9226;47.858;9.594;2024-02-23T03:53:22;93521.19;;;5.78;76.57
18201;BME280;9226;47.858;9.594;2024-02-23T03:55:48;93523.97;;;5.76;76.99
18201;BME280;9226;47.858;9.594;2024-02-23T03:58:13;93526.75;;;5.75;76.74
18201;BME280;9226;47.858;9.594;2024-02-23T04:00:38;93525.38;;;5.71;77.20
18201;BME280;9226;47.858;9.594;2024-02-23T04:03:04;93524.81;;;5.67;77.24
18201;BME280;9226;47.858;9.594;2024-02-23T04:05:29;93506.13;;;5.70;77.06
18201;BME280;9226;47.858;9.594;2024-02-23T04:07:54;93498.56;;;5.57;77.18
18201;BME280;9226;47.858;9.594;2024-02-23T04:10:20;93499.50;;;5.56;77.51
18201;BME280;9226;47.858;9.594;2024-02-23T04:12:48;93497.59;;;5.58;77.43
18201;BME280;9226;47.858;9.594;2024-02-23T04:15:13;93488.72;;;5.59;77.20
18201;BME280;9226;47.858;9.594;2024-02-23T04:17:39;93482.91;;;5.56;77.32
18201;BME280;9226;47.858;9.594;2024-02-23T04:20:08;93489.56;;;5.60;77.07
18201;BME280;9226;47.858;9.594;2024-02-23T04:22:35;93492.88;;;5.62;76.57
18201;BME280;9226;47.858;9.594;2024-02-23T04:25:01;93483.16;;;5.62;76.92
18201;BME280;9226;47.858;9.594;2024-02-23T04:27:26;93494.53;;;5.53;77.19
18201;BME280;9226;47.858;9.594;2024-02-23T04:29:51;93480.25;;;5.66;76.70
18201;BME280;9226;47.858;9.594;2024-02-23T04:32:17;93474.16;;;5.65;76.28
18201;BME280;9226;47.858;9.594;2024-02-23T04:34:42;93466.84;;;5.59;76.89
18201;BME280;9226;47.858;9.594;2024-02-23T04:37:07;93473.75;;;5.70;75.95
18201;BME280;9226;47.858;9.594;2024-02-23T04:39:33;93461.88;;;5.56;76.21
18201;BME280;9226;47.858;9.594;2024-02-23T04:41:59;93467.94;;;5.56;76.05
18201;BME280;9226;47.858;9.594;2024-02-23T04:44:24;93466.91;;;5.39;76.49
18201;BME280;9226;47.858;9.594;2024-02-23T04:46:49;93476.31;;;5.32;76.16
18201;BME280;9226;47.858;9.594;2024-02-23T04:49:15;93479.22;;;5.39;76.33
18201;BME280;9226;47.858;9.594;2024-02-23T04:51:40;93484.19;;;5.42;76.32
18201;BME280;9226;47.858;9.594;2024-02-23T04:54:05;93484.28;;;5.50;76.06
18201;BME280;9226;47.858;9.594;2024-02-23T04:56:31;93482.66;;;5.49;75.58
18201;BME280;9226;47.858;9.594;2024-02-23T04:58:57;93474.50;;;5.52;75.40
18201;BME280;9226;47.858;9.594;2024-02-23T05:01:22;93476.56;;;5.39;75.44
18201;BME280;9226;47.858;9.594;2024-02-23T05:03:48;93485.44;;;5.48;75.71
18201;BME280;9226;47.858;9.594;2024-02-23T05:06:13;93486.66;;;5.43;75.47
18201;BME280;9226;47.858;9.594;2024-02-23T05:08:38;93485.19;;;5.41;75.18
18201;BME280;9226;47.858;9.594;2024-02-23T05:11:04;93489.59;;;5.40;75.92
18201;BME280;9226;47.858;9.594;2024-02-23T05:13:29;93506.50;;;5.38;75.49
18201;BME280;9226;47.858;9.594;2024-02-23T05:15:57;93503.16;;;5.46;75.57
18201;BME280;9226;47.858;9.594;2024-02-23T05:18:23;93500.94;;;5.41;75.62
18201;BME280;9226;47.858;9.594;2024-02-23T05:20:48;93495.97;;;5.38;75.58
18201;BME280;9226;47.858;9.594;2024-02-23T05:23:14;93493.78;;;5.23;76.06
18201;BME280;9226;47.858;9.594;2024-02-23T05:25:41;93490.28;;;5.33;76.17
18201;BME280;9226;47.858;9.594;2024-02-23T05:28:06;93490.44;;;5.21;75.59
18201;BME280;9226;47.858;9.594;2024-02-23T05:30:32;93507.75;;;5.14;76.54
18201;BME280;9226;47.858;9.594;2024-02-23T05:32:58;93499.31;;;5.01;77.26
18201;BME280;9226;47.858;9.594;2024-02-23T05:35:29;93497.94;;;5.06;77.44
18201;BME280;9226;47.858;9.594;2024-02-23T05:37:54;93495.84;;;5.20;77.43
18201;BME280;9226;47.858;9.594;2024-02-23T05:40:20;93490.47;;;5.12;77.36
18201;BME280;9226;47.858;9.594;2024-02-23T05:42:45;93499.72;;;5.25;77.35
18201;BME280;9226;47.858;9.594;2024-02-23T05:45:11;93493.94;;;5.22;77.33
18201;BME280;9226;47.858;9.594;2024-02-23T05:47:40;93489.22;;;5.06;77.50
18201;BME280;9226;47.858;9.594;2024-02-23T05:50:07;93490.31;;;5.13;77.57
18201;BME280;9226;47.858;9.594;2024-02-23T05:52:34;93503.75;;;5.10;77.51
18201;BME280;9226;47.858;9.594;2024-02-23T05:55:00;93511.09;;;4.97;77.93
18201;BME280;9226;47.858;9.594;2024-02-23T05:57:26;93505.13;;;4.95;78.24
18201;BME280;9226;47.858;9.594;2024-02-23T05:59:52;93518.44;;;5.03;78.63
18201;BME280;9226;47.858;9.594;2024-02-23T06:02:17;93501.94;;;4.91;78.42
18201;BME280;9226;47.858;9.594;2024-02-23T06:04:43;93503.47;;;5.03;78.17
18201;BME280;9226;47.858;9.594;2024-02-23T06:07:08;93498.22;;;5.13;77.68
18201;BME280;9226;47.858;9.594;2024-02-23T06:09:34;93486.31;;;4.89;78.55
18201;BME280;9226;47.858;9.594;2024-02-23T06:11:59;93476.94;;;4.97;79.27
18201;BME280;9226;47.858;9.594;2024-02-23T06:14:25;93484.25;;;5.03;78.66
18201;BME280;9226;47.858;9.594;2024-02-23T06:16:50;93483.00;;;4.87;78.66
18201;BME280;9226;47.858;9.594;2024-02-23T06:19:15;93473.31;;;4.98;78.65
18201;BME280;9226;47.858;9.594;2024-02-23T06:21:41;93478.28;;;5.01;78.15
18201;BME280;9226;47.858;9.594;2024-02-23T06:24:06;93475.78;;;5.09;77.80
18201;BME280;9226;47.858;9.594;2024-02-23T06:26:33;93477.22;;;4.94;77.47
18201;BME280;9226;47.858;9.594;2024-02-23T06:28:59;93487.00;;;5.11;77.34
18201;BME280;9226;47.858;9.594;2024-02-23T06:31:25;93509.28;;;4.97;76.58
18201;BME280;9226;47.858;9.594;2024-02-23T06:33:50;93513.03;;;5.04;75.46
18201;BME280;9226;47.858;9.594;2024-02-23T06:36:17;93525.06;;;4.97;75.79
18201;BME280;9226;47.858;9.594;2024-02-23T06:38:44;93525.75;;;5.19;74.91
18201;BME280;9226;47.858;9.594;2024-02-23T06:41:09;93528.09;;;5.12;74.99
18201;BME280;9226;47.858;9.594;2024-02-23T06:43:36;93525.44;;;5.12;74.66
18201;BME280;9226;47.858;9.594;2024-02-23T06:46:07;93525.31;;;5.04;74.56
18201;BME280;9226;47.858;9.594;2024-02-23T06:48:34;93531.56;;;5.03;74.69
18201;BME280;9226;47.858;9.594;2024-02-23T06:50:59;93525.88;;;5.07;74.45
18201;BME280;9226;47.858;9.594;2024-02-23T06:53:25;93525.88;;;5.07;74.91
18201;BME280;9226;47.858;9.594;2024-02-23T06:55:50;93528.22;;;5.01;74.55
18201;BME280;9226;47.858;9.594;2024-02-23T06:58:15;93530.03;;;5.10;74.73
18201;BME280;9226;47.858;9.594;2024-02-23T07:00:42;93535.97;;;5.12;74.35
18201;BME280;9226;47.858;9.594;2024-02-23T07:03:07;93526.97;;;5.15;74.29
18201;BME280;9226;47.858;9.594;2024-02-23T07:05:32;93546.34;;;5.14;73.73
18201;BME280;9226;47.858;9.594;2024-02-23T07:07:58;93540.97;;;5.25;74.10
18201;BME280;9226;47.858;9.594;2024-02-23T07:10:23;93547.88;;;5.16;73.00
18201;BME280;9226;47.858;9.594;2024-02-23T07:12:50;93556.31;;;5.30;73.77
18201;BME280;9226;47.858;9.594;2024-02-23T07:15:19;93557.69;;;5.24;73.64
18201;BME280;9226;47.858;9.594;2024-02-23T07:17:45;93559.38;;;5.35;73.84
18201;BME280;9226;47.858;9.594;2024-02-23T07:20:10;93556.03;;;5.42;73.49
18201;BME280;9226;47.858;9.594;2024-02-23T07:22:36;93551.59;;;5.53;73.43
18201;BME280;9226;47.858;9.594;2024-02-23T07:25:01;93538.97;;;5.56;72.60
18201;BME280;9226;47.858;9.594;2024-02-23T07:27:29;93534.13;;;5.61;72.89
18201;BME280;9226;47.858;9.594;2024-02-23T07:29:55;93523.06;;;5.68;72.73
18201;BME280;9226;47.858;9.594;2024-02-23T07:32:20;93546.28;;;5.72;72.91
18201;BME280;9226;47.858;9.594;2024-02-23T07:34:46;93552.38;;;5.73;73.23
18201;BME280;9226;47.858;9.594;2024-02-23T07:37:11;93553.34;;;5.72;72.12
18201;BME280;9226;47.858;9.594;2024-02-23T07:39:36;93555.41;;;5.78;72.68
18201;BME280;9226;47.858;9.594;2024-02-23T07:42:03;93569.81;;;5.84;72.90
18201;BME280;9226;47.858;9.594;2024-02-23T07:44:28;93566.59;;;5.90;72.50
18201;BME280;9226;47.858;9.594;2024-02-23T07:46:53;93556.81;;;5.82;72.22
18201;BME280;9226;47.858;9.594;2024-02-23T07:49:20;93573.81;;;5.88;72.83
18201;BME280;9226;47.858;9.594;2024-02-23T07:51:47;93576.44;;;5.88;73.12
18201;BME280;9226;47.858;9.594;2024-02-23T07:54:12;93568.41;;;5.89;72.75
18201;BME280;9226;47.858;9.594;2024-02-23T07:56:38;93554.28;;;5.90;72.85
18201;BME280;9226;47.858;9.594;2024-02-23T07:59:03;93557.72;;;5.91;72.80
18201;BME280;9226;47.858;9.594;2024-02-23T08:01:29;93557.91;;;5.79;71.32
18201;BME280;9226;47.858;9.594;2024-02-23T08:03:54;93566.63;;;5.80;72.50
18201;BME280;9226;47.858;9.594;2024-02-23T08:06:19;93562.06;;;5.82;72.63
18201;BME280;9226;47.858;9.594;2024-02-23T08:08:45;93551.81;;;5.69;71.97
18201;BME280;9226;47.858;9.594;2024-02-23T08:11:10;93557.66;;;5.73;71.86
18201;BME280;9226;47.858;9.594;2024-02-23T08:13:36;93549.03;;;5.71;71.66
18201;BME280;9226;47.858;9.594;2024-02-23T08:16:01;93555.44;;;5.68;71.95
18201;BME280;9226;47.858;9.594;2024-02-23T08:18:27;93552.66;;;5.70;71.69
18201;BME280;9226;47.858;9.594;2024-02-23T08:20:52;93559.16;;;5.75;72.09
18201;BME280;9226;47.858;9.594;2024-02-23T08:23:18;93560.09;;;5.84;71.67
18201;BME280;9226;47.858;9.594;2024-02-23T08:25:47;93565.69;;;5.61;71.30
18201;BME280;9226;47.858;9.594;2024-02-23T08:28:13;93562.06;;;5.82;71.69
18201;BME280;9226;47.858;9.594;2024-02-23T08:30:38;93546.78;;;5.95;71.74
18201;BME280;9226;47.858;9.594;2024-02-23T08:33:04;93556.75;;;6.02;71.65
18201;BME280;9226;47.858;9.594;2024-02-23T08:35:30;93554.41;;;5.98;71.30
18201;BME280;9226;47.858;9.594;2024-02-23T08:37:55;93542.63;;;6.03;71.08
18201;BME280;9226;47.858;9.594;2024-02-23T08:40:21;93542.06;;;5.99;70.73
18201;BME280;9226;47.858;9.594;2024-02-23T08:42:46;93554.56;;;5.97;70.55
18201;BME280;9226;47.858;9.594;2024-02-23T08:45:12;93555.09;;;6.01;70.63
18201;BME280;9226;47.858;9.594;2024-02-23T08:47:38;93567.00;;;5.95;70.22
18201;BME280;9226;47.858;9.594;2024-02-23T08:50:05;93575.50;;;5.79;70.57
18201;BME280;9226;47.858;9.594;2024-02-23T08:52:30;93567.59;;;5.79;70.76
18201;BME280;9226;47.858;9.594;2024-02-23T08:54:56;93566.44;;;5.91;70.78
18201;BME280;9226;47.858;9.594;2024-02-23T08:57:21;93562.84;;;6.02;71.06
18201;BME280;9226;47.858;9.594;2024-02-23T08:59:49;93566.34;;;6.03;70.79
18201;BME280;9226;47.858;9.594;2024-02-23T09:02:14;93580.06;;;5.96;71.17
18201;BME280;9226;47.858;9.594;2024-02-23T09:04:39;93576.53;;;5.96;71.09
18201;BME280;9226;47.858;9.594;2024-02-23T09:07:06;93572.28;;;5.95;71.56
18201;BME280;9226;47.858;9.594;2024-02-23T09:09:32;93573.09;;;5.95;71.45
18201;BME280;9226;47.858;9.594;2024-02-23T09:11:57;93570.75;;;5.92;71.34
18201;BME280;9226;47.858;9.594;2024-02-23T09:14:22;93578.34;;;5.95;71.47
18201;BME280;9226;47.858;9.594;2024-02-23T09:16:48;93576.69;;;5.94;71.88
18201;BME280;9226;47.858;9.594;2024-02-23T09:19:16;93570.22;;;5.98;72.40
18201;BME280;9226;47.858;9.594;2024-02-23T09:21:41;93567.28;;;6.02;72.36
18201;BME280;9226;47.858;9.594;2024-02-23T09:24:07;93570.59;;;6.04;72.40
18201;BME280;9226;47.858;9.594;2024-02-23T09:26:32;93565.06;;;6.07;72.36
18201;BME280;9226;47.858;9.594;2024-02-23T09:28:57;93572.16;;;5.96;73.12
18201;BME280;9226;47.858;9.594;2024-02-23T09:31:23;93569.75;;;6.13;73.11
18201;BME280;9226;47.858;9.594;2024-02-23T09:33:48;93571.16;;;6.07;72.81
18201;BME280;9226;47.858;9.594;2024-02-23T09:36:17;93566.72;;;6.08;73.65
18201;BME280;9226;47.858;9.594;2024-02-23T09:38:42;93569.47;;;6.16;73.17
18201;BME280;9226;47.858;9.594;2024-02-23T09:41:17;93577.06;;;6.19;73.32
18201;BME280;9226;47.858;9.594;2024-02-23T09:43:44;93565.97;;;6.25;73.19
18201;BME280;9226;47.858;9.594;2024-02-23T09:46:11;93562.50;;;6.25;73.26
18201;BME280;9226;47.858;9.594;2024-02-23T09:48:38;93563.91;;;6.19;73.16
18201;BME280;9226;47.858;9.594;2024-02-23T09:51:05;93568.88;;;6.22;73.84
18201;BME280;9226;47.858;9.594;2024-02-23T09:53:31;93576.16;;;6.38;74.09
18201;BME280;9226;47.858;9.594;2024-02-23T09:55:57;93577.97;;;6.38;73.82
18201;BME280;9226;47.858;9.594;2024-02-23T09:58:26;93570.13;;;6.56;73.85
18201;BME280;9226;47.858;9.594;2024-02-23T10:00:56;93575.44;;;6.46;73.77
18201;BME280;9226;47.858;9.594;2024-02-23T10:03:27;93568.50;;;6.45;73.95
18201;BME280;9226;47.858;9.594;2024-02-23T10:05:53;93567.00;;;6.42;73.42
18201;BME280;9226;47.858;9.594;2024-02-23T10:08:19;93566.81;;;6.54;73.54
18201;BME280;9226;47.858;9.594;2024-02-23T10:10:46;93563.03;;;6.56;73.90
18201;BME280;9226;47.858;9.594;2024-02-23T10:13:12;93562.38;;;6.54;73.89
18201;BME280;9226;47.858;9.594;2024-02-23T10:15:37;93573.72;;;6.55;74.09
18201;BME280;9226;47.858;9.594;2024-02-23T10:18:04;93574.56;;;6.55;73.90
18201;BME280;9226;47.858;9.594;2024-02-23T10:20:29;93577.59;;;6.60;73.85
18201;BME280;9226;47.858;9.594;2024-02-23T10:22:54;93568.50;;;6.73;73.79
18201;BME280;9226;47.858;9.594;2024-02-23T10:25:20;93576.31;;;6.64;74.78
18201;BME280;9226;47.858;9.594;2024-02-23T10:27:46;93571.56;;;6.50;75.64
18201;BME280;9226;47.858;9.594;2024-02-23T10:30:13;93572.75;;;6.56;75.47
18201;BME280;9226;47.858;9.594;2024-02-23T10:32:40;93568.22;;;6.48;75.91
18201;BME280;9226;47.858;9.594;2024-02-23T10:35:10;93573.91;;;6.43;76.48
18201;BME280;9226;47.858;9.594;2024-02-23T10:37:36;93566.44;;;6.39;76.89
18201;BME280;9226;47.858;9.594;2024-02-23T10:40:01;93572.72;;;6.38;77.38
18201;BME280;9226;47.858;9.594;2024-02-23T10:42:33;93575.19;;;6.39;77.27
18201;BME280;9226;47.858;9.594;2024-02-23T10:45:01;93573.78;;;6.45;77.03
18201;BME280;9226;47.858;9.594;2024-02-23T10:47:28;93568.78;;;6.51;76.40
18201;BME280;9226;47.858;9.594;2024-02-23T10:49:57;93570.16;;;6.46;76.56
18201;BME280;9226;47.858;9.594;2024-02-23T10:52:26;93566.16;;;6.42;76.92
18201;BME280;9226;47.858;9.594;2024-02-23T10:54:52;93580.41;;;6.49;76.39
18201;BME280;9226;47.858;9.594;2024-02-23T10:57:18;93577.69;;;6.41;76.72
18201;BME280;9226;47.858;9.594;2024-02-23T10:59:47;93581.47;;;6.56;75.92
18201;BME280;9226;47.858;9.594;2024-02-23T11:02:14;93587.44;;;6.58;75.96
18201;BME280;9226;47.858;9.594;2024-02-23T11:04:47;93591.28;;;6.64;75.71
18201;BME280;9226;47.858;9.594;2024-02-23T11:07:19;93579.44;;;6.78;75.62
18201;BME280;9226;47.858;9.594;2024-02-23T11:09:55;93581.41;;;6.76;75.29
18201;BME280;9226;47.858;9.594;2024-02-23T11:12:24;93589.59;;;6.73;75.56
18201;BME280;9226;47.858;9.594;2024-02-23T11:14:50;93588.88;;;6.80;75.33
18201;BME280;9226;47.858;9.594;2024-02-23T11:17:20;93582.00;;;6.87;75.31
18201;BME280;9226;47.858;9.594;2024-02-23T11:19:49;93581.72;;;6.91;75.08
18201;BME280;9226;47.858;9.594;2024-02-23T11:22:14;93581.34;;;7.03;74.94
18201;BME280;9226;47.858;9.594;2024-02-23T11:24:44;93569.47;;;6.99;74.15
18201;BME280;9226;47.858;9.594;2024-02-23T11:27:14;93567.03;;;6.88;74.29
18201;BME280;9226;47.858;9.594;2024-02-23T11:29:42;93569.38;;;6.91;74.58
18201;BME280;9226;47.858;9.594;2024-02-23T11:32:15;93567.63;;;7.00;74.72
18201;BME280;9226;47.858;9.594;2024-02-23T11:34:41;93570.91;;;7.12;74.28
18201;BME280;9226;47.858;9.594;2024-02-23T11:37:10;93565.63;;;7.12;74.56
18201;BME280;9226;47.858;9.594;2024-02-23T11:39:37;93558.97;;;7.25;74.31
18201;BME280;9226;47.858;9.594;2024-02-23T11:42:04;93561.94;;;7.40;73.98
18201;BME280;9226;47.858;9.594;2024-02-23T11:44:30;93553.09;;;7.50;73.81
18201;BME280;9226;47.858;9.594;2024-02-23T11:46:58;93545.56;;;7.55;72.20
18201;BME280;9226;47.858;9.594;2024-02-23T11:49:28;93556.84;;;7.65;72.48
18201;BME280;9226;47.858;9.594;2024-02-23T11:51:53;93555.50;;;7.61;70.59
18201;BME280;9226;47.858;9.594;2024-02-23T11:54:19;93561.19;;;7.74;71.47
18201;BME280;9226;47.858;9.594;2024-02-23T11:56:45;93564.53;;;7.76;70.89
18201;BME280;9226;47.858;9.594;2024-02-23T11:59:10;93561.50;;;7.71;69.15
18201;BME280;9226;47.858;9.594;2024-02-23T12:01:36;93554.69;;;7.87;69.22
18201;BME280;9226;47.858;9.594;2024-02-23T12:04:01;93565.66;;;7.74;68.87
18201;BME280;9226;47.858;9.594;2024-02-23T12:06:27;93562.31;;;7.90;69.25
18201;BME280;9226;47.858;9.594;2024-02-23T12:08:56;93553.88;;;7.86;68.38
18201;BME280;9226;47.858;9.594;2024-02-23T12:11:21;93562.34;;;7.98;68.26
18201;BME280;9226;47.858;9.594;2024-02-23T12:13:47;93565.28;;;7.95;67.48
18201;BME280;9226;47.858;9.594;2024-02-23T12:16:14;93557.28;;;7.78;65.82
18201;BME280;9226;47.858;9.594;2024-02-23T12:18:39;93553.44;;;7.73;64.18
18201;BME280;9226;47.858;9.594;2024-02-23T12:21:06;93546.09;;;7.85;65.34
18201;BME280;9226;47.858;9.594;2024-02-23T12:23:42;93539.91;;;7.50;62.26
18201;BME280;9226;47.858;9.594;2024-02-23T12:26:08;93543.16;;;7.43;62.13
18201;BME280;9226;47.858;9.594;2024-02-23T12:28:33;93545.09;;;7.41;62.58
18201;BME280;9226;47.858;9.594;2024-02-23T12:31:00;93543.09;;;7.35;61.54
18201;BME280;9226;47.858;9.594;2024-02-23T12:33:33;93535.00;;;7.55;63.30
18201;BME280;9226;47.858;9.594;2024-02-23T12:36:05;93538.91;;;7.51;62.21
18201;BME280;9226;47.858;9.594;2024-02-23T12:38:31;93535.50;;;7.58;61.44
18201;BME280;9226;47.858;9.594;2024-02-23T12:40:58;93538.81;;;7.78;63.21
18201;BME280;9226;47.858;9.594;2024-02-23T12:43:24;93538.81;;;7.78;62.32
18201;BME280;9226;47.858;9.594;2024-02-23T12:45:53;93549.56;;;7.85;61.27
18201;BME280;9226;47.858;9.594;2024-02-23T12:48:22;93540.28;;;7.81;59.14
18201;BME280;9226;47.858;9.594;2024-02-23T12:50:48;93539.78;;;7.77;57.94
18201;BME280;9226;47.858;9.594;2024-02-23T12:53:36;93543.06;;;7.79;57.63
18201;BME280;9226;47.858;9.594;2024-02-23T12:56:04;93537.69;;;7.63;55.84
18201;BME280;9226;47.858;9.594;2024-02-23T12:58:31;93537.34;;;7.40;54.75
18201;BME280;9226;47.858;9.594;2024-02-23T13:00:57;93529.38;;;7.14;54.75
18201;BME280;9226;47.858;9.594;2024-02-23T13:03:24;93533.81;;;7.31;54.22
18201;BME280;9226;47.858;9.594;2024-02-23T13:05:50;93516.94;;;7.42;55.62
18201;BME280;9226;47.858;9.594;2024-02-23T13:08:16;93513.84;;;7.47;56.64
18201;BME280;9226;47.858;9.594;2024-02-23T13:10:41;93525.31;;;7.64;57.45
18201;BME280;9226;47.858;9.594;2024-02-23T13:13:07;93526.13;;;7.56;55.65
18201;BME280;9226;47.858;9.594;2024-02-23T13:15:32;93517.63;;;7.70;57.32
18201;BME280;9226;47.858;9.594;2024-02-23T13:17:57;93505.16;;;7.81;57.33